Time;durP1;ratioP1;P1;durP2;ratioP2;P2;SDS_P1;SDS_P2;PMS_P1;PMS_P2;Temp;Humidity;BMP_temperature;BMP_pressure;BME280_temperature;BME280_humidity;BME280_pressure;Samples;Min_cycle;Max_cycle;Signal;HPM_P1;HPM_P2
2022/07/13 00:01:18;;;;;;;3.70;2.08;;;18.30;85.60;;;;;;5059652;28;20037;-78
2022/07/13 00:03:43;;;;;;;1.85;1.60;;;18.30;85.80;;;;;;5061717;28;20025;-79
2022/07/13 00:06:09;;;;;;;2.88;1.80;;;18.20;86.00;;;;;;5060026;28;20025;-79
2022/07/13 00:08:35;;;;;;;5.00;1.70;;;18.20;86.70;;;;;;5058428;28;20383;-80
2022/07/13 00:11:01;;;;;;;2.95;1.40;;;18.20;86.30;;;;;;5059515;28;20028;-79
2022/07/13 00:13:27;;;;;;;4.80;1.58;;;18.20;86.50;;;;;;5060568;28;20525;-79
2022/07/13 00:15:52;;;;;;;4.72;1.90;;;18.20;86.50;;;;;;5061249;28;20029;-79
2022/07/13 00:18:18;;;;;;;2.72;2.05;;;18.20;86.50;;;;;;5073048;28;20025;-80
2022/07/13 00:20:45;;;;;;;3.38;1.63;;;18.20;86.60;;;;;;5061371;28;20035;-80
2022/07/13 00:23:11;;;;;;;4.15;1.75;;;18.10;86.60;;;;;;5058725;28;20501;-80
2022/07/13 00:25:37;;;;;;;5.63;1.70;;;18.10;86.70;;;;;;5058513;28;20125;-79
2022/07/13 00:28:03;;;;;;;2.60;1.65;;;18.10;86.70;;;;;;5058685;28;20652;-80
2022/07/13 00:30:29;;;;;;;1.73;1.63;;;18.10;86.80;;;;;;5058811;28;20025;-80
2022/07/13 00:32:56;;;;;;;2.90;1.77;;;18.10;87.00;;;;;;5057934;28;20021;-78
2022/07/13 00:35:21;;;;;;;3.25;1.65;;;18.00;87.00;;;;;;5058165;28;20523;-78
2022/07/13 00:37:47;;;;;;;3.25;1.23;;;18.00;87.10;;;;;;5059485;28;20033;-80
2022/07/13 00:40:14;;;;;;;4.95;1.80;;;18.00;87.10;;;;;;5073608;28;20047;-80
2022/07/13 00:42:39;;;;;;;1.60;1.48;;;17.90;87.30;;;;;;5059921;28;20079;-80
2022/07/13 00:45:06;;;;;;;4.20;1.40;;;17.90;87.60;;;;;;5058182;28;20040;-79
2022/07/13 00:47:33;;;;;;;3.40;1.65;;;17.90;87.50;;;;;;5056518;28;20084;-79
2022/07/13 00:50:06;;;;;;;6.78;1.60;;;17.90;87.50;;;;;;5060765;28;20029;-80
2022/07/13 00:52:35;;;;;;;2.38;1.63;;;17.90;87.60;;;;;;5062297;28;20354;-80
2022/07/13 00:55:03;;;;;;;2.65;1.50;;;17.90;87.70;;;;;;5058204;28;20025;-79
2022/07/13 00:57:32;;;;;;;3.95;1.90;;;17.80;88.40;;;;;;5055789;28;20511;-80
2022/07/13 00:59:58;;;;;;;4.18;1.70;;;17.90;88.00;;;;;;5056927;28;20025;-80
2022/07/13 01:02:24;;;;;;;2.08;1.40;;;17.90;87.80;;;;;;5055400;28;20048;-79
2022/07/13 01:04:50;;;;;;;2.58;1.52;;;17.90;87.90;;;;;;5055793;28;20115;-78
2022/07/13 01:07:15;;;;;;;2.53;1.60;;;17.90;87.90;;;;;;5059537;28;20064;-79
2022/07/13 01:09:41;;;;;;;3.50;1.75;;;17.90;88.00;;;;;;5062218;28;20033;-79
2022/07/13 01:12:07;;;;;;;2.78;1.70;;;17.80;88.10;;;;;;5060806;28;20017;-79
2022/07/13 01:14:35;;;;;;;6.78;1.52;;;17.90;88.20;;;;;;5061290;28;20025;-79
2022/07/13 01:17:02;;;;;;;1.85;1.50;;;17.90;88.10;;;;;;5061242;28;20439;-78
2022/07/13 01:19:28;;;;;;;3.67;1.55;;;17.90;88.20;;;;;;5060678;28;20171;-79
2022/07/13 01:22:02;;;;;;;3.15;1.85;;;17.90;88.30;;;;;;5061253;28;20121;-78
2022/07/13 01:24:30;;;;;;;3.75;1.45;;;17.90;88.30;;;;;;5060715;28;20036;-78
2022/07/13 01:26:56;;;;;;;2.85;1.65;;;17.80;88.30;;;;;;5062096;28;20032;-79
2022/07/13 01:29:22;;;;;;;3.83;1.60;;;17.90;88.40;;;;;;5061381;28;20108;-78
2022/07/13 01:31:48;;;;;;;3.40;1.60;;;17.80;88.40;;;;;;5060879;28;20060;-80
2022/07/13 01:34:14;;;;;;;3.85;1.40;;;17.90;89.00;;;;;;5059204;28;20067;-79
2022/07/13 01:36:42;;;;;;;6.50;1.77;;;17.90;88.30;;;;;;5064198;28;20040;-78
2022/07/13 01:39:09;;;;;;;3.50;1.90;;;17.90;88.30;;;;;;5060904;28;20040;-78
2022/07/13 01:41:36;;;;;;;12.80;1.45;;;17.90;88.10;;;;;;5059078;28;20029;-79
2022/07/13 01:44:01;;;;;;;3.60;1.40;;;18.00;88.00;;;;;;5060176;28;20028;-80
2022/07/13 01:46:29;;;;;;;2.17;1.30;;;18.00;88.00;;;;;;5057214;28;20051;-78
2022/07/13 01:48:57;;;;;;;3.72;1.60;;;18.00;88.00;;;;;;5041931;28;20025;-78
2022/07/13 01:51:23;;;;;;;2.28;1.60;;;18.00;88.00;;;;;;5042205;28;20165;-79
2022/07/13 01:53:49;;;;;;;5.45;1.50;;;18.00;87.90;;;;;;5059053;28;20044;-78
2022/07/13 01:56:15;;;;;;;5.55;1.40;;;18.00;88.00;;;;;;5057508;28;20029;-77
2022/07/13 01:58:41;;;;;;;1.77;1.48;;;18.00;88.00;;;;;;5059607;28;20029;-78
2022/07/13 02:01:07;;;;;;;2.20;1.35;;;18.00;88.00;;;;;;5060183;28;20155;-79
2022/07/13 02:03:33;;;;;;;3.53;1.55;;;18.00;88.00;;;;;;5060230;28;20029;-77
2022/07/13 02:05:59;;;;;;;2.58;1.50;;;18.00;87.80;;;;;;5057477;28;20032;-80
2022/07/13 02:08:27;;;;;;;3.50;1.27;;;17.90;87.80;;;;;;5063638;28;20045;-78
2022/07/13 02:10:53;;;;;;;5.35;1.27;;;18.00;87.50;;;;;;5059509;28;20049;-79
2022/07/13 02:13:21;;;;;;;2.58;1.58;;;18.00;87.60;;;;;;5055376;28;20036;-80
2022/07/13 02:15:47;;;;;;;4.38;1.45;;;18.00;87.50;;;;;;5055734;28;20433;-79
2022/07/13 02:18:13;;;;;;;3.17;1.63;;;18.00;87.50;;;;;;5057587;28;20071;-78
2022/07/13 02:20:39;;;;;;;4.60;1.60;;;18.00;87.60;;;;;;5056361;28;20029;-79
2022/07/13 02:23:05;;;;;;;3.05;1.35;;;18.00;87.70;;;;;;5054303;28;20029;-79
2022/07/13 02:25:35;;;;;;;2.28;1.50;;;18.00;87.60;;;;;;5056803;28;20029;-79
2022/07/13 02:28:01;;;;;;;1.98;1.35;;;18.10;87.60;;;;;;5062235;28;20025;-79
2022/07/13 02:30:29;;;;;;;3.03;1.77;;;18.10;87.80;;;;;;5106467;22;20071;-89
2022/07/13 02:32:55;;;;;;;2.17;1.33;;;18.10;87.70;;;;;;5074003;28;20033;-89
2022/07/13 02:35:21;;;;;;;2.92;1.50;;;18.00;87.70;;;;;;5077982;28;20020;-88
2022/07/13 02:37:47;;;;;;;2.95;1.38;;;18.00;87.80;;;;;;5078812;28;20017;-88
2022/07/13 02:40:13;;;;;;;4.35;1.73;;;18.00;87.70;;;;;;5061930;28;20025;-90
2022/07/13 02:42:39;;;;;;;2.78;1.45;;;18.00;88.10;;;;;;5079310;28;20020;-89
2022/07/13 02:45:06;;;;;;;2.58;1.48;;;18.00;88.20;;;;;;5078353;28;20024;-89
2022/07/13 02:47:33;;;;;;;1.95;1.20;;;18.00;88.40;;;;;;5078515;28;20036;-88
2022/07/13 02:50:00;;;;;;;1.55;1.38;;;17.90;88.70;;;;;;5078121;28;20013;-89
2022/07/13 02:52:27;;;;;;;1.52;1.25;;;17.80;88.70;;;;;;5078866;28;20183;-89
2022/07/13 02:54:53;;;;;;;3.42;1.45;;;17.80;88.80;;;;;;5078541;28;20013;-90
2022/07/13 02:57:19;;;;;;;2.95;1.63;;;17.70;89.40;;;;;;5078635;28;20017;-90
2022/07/13 02:59:52;;;;;;;3.63;1.58;;;17.70;89.60;;;;;;5072083;28;20477;-87
2022/07/13 03:02:18;;;;;;;1.42;1.33;;;17.70;89.40;;;;;;5084837;28;20064;-89
2022/07/13 03:04:46;;;;;;;4.63;1.73;;;17.70;89.50;;;;;;5077029;28;20051;-91
2022/07/13 03:07:12;;;;;;;4.25;1.55;;;17.70;89.50;;;;;;5085455;28;20052;-89
2022/07/13 03:09:39;;;;;;;2.90;1.50;;;17.70;89.30;;;;;;5083963;28;20021;-89
2022/07/13 03:12:05;;;;;;;3.72;1.35;;;17.70;89.00;;;;;;5083948;28;20035;-89
2022/07/13 03:14:31;;;;;;;1.40;1.30;;;17.70;89.30;;;;;;5074164;28;20025;-86
2022/07/13 03:16:57;;;;;;;1.33;1.13;;;17.70;89.20;;;;;;5077829;28;20024;-88
2022/07/13 03:19:23;;;;;;;5.47;1.60;;;17.70;89.20;;;;;;5078654;28;20021;-89
2022/07/13 03:21:49;;;;;;;2.30;1.35;;;17.70;89.30;;;;;;5077600;28;20021;-89
2022/07/13 03:24:15;;;;;;;3.67;1.70;;;17.70;89.20;;;;;;5077712;28;20021;-88
2022/07/13 03:26:42;;;;;;;2.15;1.25;;;17.60;89.30;;;;;;5077943;28;20053;-87
2022/07/13 03:29:08;;;;;;;1.95;1.45;;;17.70;89.30;;;;;;5094172;28;20080;-86
2022/07/13 03:31:34;;;;;;;4.13;1.27;;;17.70;89.40;;;;;;5078212;28;20017;-89
2022/07/13 03:34:00;;;;;;;5.93;1.42;;;17.70;89.40;;;;;;5094211;28;20031;-89
2022/07/13 03:36:27;;;;;;;8.10;1.42;;;17.70;89.40;;;;;;5074878;28;20469;-88
2022/07/13 03:38:54;;;;;;;7.60;1.55;;;17.70;89.50;;;;;;5074739;28;20021;-88
2022/07/13 03:41:21;;;;;;;10.20;1.98;;;17.70;89.60;;;;;;5075193;28;20033;-90
2022/07/13 03:43:47;;;;;;;8.65;1.80;;;17.70;89.40;;;;;;5075628;28;20092;-91
2022/07/13 03:46:13;;;;;;;3.85;1.42;;;17.70;89.50;;;;;;5091681;28;20051;-89
2022/07/13 03:48:39;;;;;;;5.05;1.35;;;17.70;89.50;;;;;;5074163;28;20028;-89
2022/07/13 03:51:05;;;;;;;2.63;1.20;;;17.80;89.50;;;;;;5090876;28;20319;-89
2022/07/13 03:53:31;;;;;;;3.15;1.58;;;17.80;89.60;;;;;;5071958;28;20172;-89
2022/07/13 03:55:58;;;;;;;8.13;1.30;;;17.80;89.70;;;;;;5068268;28;20045;-89
2022/07/13 03:58:24;;;;;;;5.38;1.38;;;17.80;89.70;;;;;;5066803;28;20028;-90
2022/07/13 04:00:51;;;;;;;4.70;1.42;;;17.80;89.70;;;;;;5076303;28;20028;-88
2022/07/13 04:03:18;;;;;;;7.45;1.30;;;17.80;89.90;;;;;;5077654;28;20020;-89
2022/07/13 04:05:47;;;;;;;3.85;1.40;;;17.80;90.10;;;;;;5077322;28;20032;-89
2022/07/13 04:08:13;;;;;;;5.18;1.38;;;17.80;90.00;;;;;;5077148;28;20100;-88
2022/07/13 04:10:39;;;;;;;5.43;1.27;;;17.90;90.00;;;;;;5091575;28;20033;-88
2022/07/13 04:13:05;;;;;;;9.07;3.78;;;18.00;90.10;;;;;;5064074;28;20017;-87
2022/07/13 04:15:31;;;;;;;4.50;1.40;;;18.10;90.10;;;;;;5053560;28;20029;-85
2022/07/13 04:17:57;;;;;;;4.30;1.30;;;18.10;90.10;;;;;;5045238;28;20041;-88
2022/07/13 04:20:23;;;;;;;2.72;1.50;;;18.20;90.10;;;;;;5054198;28;20022;-90
2022/07/13 04:22:50;;;;;;;3.88;1.40;;;18.30;90.00;;;;;;5072518;28;20017;-88
2022/07/13 04:25:17;;;;;;;2.65;1.80;;;18.40;90.00;;;;;;5071525;28;20080;-86
2022/07/13 04:27:44;;;;;;;7.00;2.03;;;18.50;89.80;;;;;;5047724;28;20044;-87
2022/07/13 04:30:10;;;;;;;8.10;1.60;;;18.50;89.70;;;;;;5076370;28;20029;-90
2022/07/13 04:32:40;;;;;;;6.28;1.67;;;18.60;89.80;;;;;;5075394;28;20182;-89
2022/07/13 04:35:07;;;;;;;1.88;1.40;;;18.70;89.60;;;;;;5073762;28;20096;-89
2022/07/13 04:37:36;;;;;;;5.05;1.73;;;18.70;89.40;;;;;;5060310;28;20090;-90
2022/07/13 04:40:04;;;;;;;3.83;1.58;;;18.90;89.30;;;;;;5076487;28;20084;-88
2022/07/13 04:42:30;;;;;;;3.42;1.40;;;18.90;89.10;;;;;;5060157;28;20107;-87
2022/07/13 04:44:56;;;;;;;3.58;1.55;;;19.00;88.80;;;;;;5076652;28;20021;-87
2022/07/13 04:47:21;;;;;;;5.95;1.98;;;19.10;88.70;;;;;;5076517;28;20181;-89
2022/07/13 04:49:49;;;;;;;9.30;5.20;;;19.20;88.70;;;;;;5061281;28;20032;-89
2022/07/13 04:52:14;;;;;;;3.30;2.08;;;19.50;88.50;;;;;;5080168;28;20125;-90
2022/07/13 04:54:43;;;;;;;3.58;1.40;;;19.90;87.80;;;;;;5076317;28;20128;-89
2022/07/13 04:57:08;;;;;;;2.75;1.45;;;20.00;87.50;;;;;;5075823;28;20025;-88
2022/07/13 04:59:34;;;;;;;2.97;1.30;;;20.00;87.70;;;;;;5078434;28;20100;-91
2022/07/13 05:02:00;;;;;;;3.95;1.30;;;19.80;87.90;;;;;;5079704;28;20036;-89
2022/07/13 05:04:26;;;;;;;7.15;1.55;;;19.80;88.10;;;;;;5079406;28;20043;-88
2022/07/13 05:06:52;;;;;;;2.95;1.30;;;19.80;88.70;;;;;;5074536;28;20053;-88
2022/07/13 05:09:19;;;;;;;7.30;1.40;;;19.70;88.80;;;;;;5074453;28;20093;-88
2022/07/13 05:11:45;;;;;;;4.65;1.80;;;19.80;88.90;;;;;;5077290;28;20029;-88
2022/07/13 05:14:11;;;;;;;3.88;1.42;;;19.90;88.90;;;;;;5075282;28;20056;-89
2022/07/13 05:16:37;;;;;;;4.47;1.45;;;20.00;88.70;;;;;;5073188;28;20017;-88
2022/07/13 05:19:06;;;;;;;7.47;1.67;;;20.10;88.70;;;;;;5057986;28;20028;-88
2022/07/13 05:21:36;;;;;;;4.85;1.48;;;20.30;88.40;;;;;;5059572;28;20039;-88
2022/07/13 05:24:03;;;;;;;10.07;1.58;;;20.40;88.10;;;;;;5074153;28;20070;-90
2022/07/13 05:26:29;;;;;;;4.85;1.58;;;20.50;88.10;;;;;;5056132;28;20048;-89
2022/07/13 05:28:56;;;;;;;4.30;1.40;;;20.50;88.10;;;;;;5075988;28;20028;-88
2022/07/13 05:31:22;;;;;;;8.55;1.58;;;20.60;87.90;;;;;;5073334;28;20052;-90
2022/07/13 05:33:49;;;;;;;5.88;1.70;;;20.60;88.00;;;;;;5073565;28;20049;-89
2022/07/13 05:36:19;;;;;;;9.77;1.80;;;20.70;88.20;;;;;;5074527;28;20024;-89
2022/07/13 05:38:46;;;;;;;8.77;1.70;;;20.60;88.20;;;;;;5078629;28;20063;-89
2022/07/13 05:41:12;;;;;;;7.45;1.67;;;20.70;88.50;;;;;;5062065;28;20013;-88
2022/07/13 05:43:40;;;;;;;4.40;1.35;;;20.60;88.90;;;;;;5078493;28;20017;-89
2022/07/13 05:46:08;;;;;;;5.85;1.40;;;20.50;89.10;;;;;;5078471;28;20047;-89
2022/07/13 05:48:37;;;;;;;4.07;1.48;;;20.50;89.40;;;;;;5078470;28;20020;-88
2022/07/13 05:51:03;;;;;;;4.70;1.30;;;20.50;89.50;;;;;;5061861;28;20017;-89
2022/07/13 05:53:29;;;;;;;5.97;1.60;;;20.50;89.80;;;;;;5078078;28;20040;-89
2022/07/13 05:55:57;;;;;;;5.32;1.40;;;20.50;90.00;;;;;;5061391;28;20017;-89
2022/07/13 05:58:23;;;;;;;10.52;1.77;;;20.40;90.00;;;;;;5078003;28;20033;-88
2022/07/13 06:00:49;;;;;;;7.18;1.63;;;20.40;90.10;;;;;;5043962;28;20109;-87
2022/07/13 06:03:15;;;;;;;12.43;2.40;;;20.30;90.10;;;;;;5078508;28;20013;-88
2022/07/13 06:05:41;;;;;;;5.88;1.45;;;20.30;90.20;;;;;;5078484;28;20071;-88
2022/07/13 06:08:06;;;;;;;2.55;1.50;;;20.30;90.30;;;;;;5077882;28;20028;-88
2022/07/13 06:10:32;;;;;;;1.95;1.75;;;20.30;90.40;;;;;;5076085;28;20032;-89
2022/07/13 06:12:58;;;;;;;6.57;1.48;;;20.20;90.50;;;;;;5079036;28;20021;-89
2022/07/13 06:15:24;;;;;;;6.65;1.83;;;20.20;90.60;;;;;;5079543;28;20112;-87
2022/07/13 06:17:50;;;;;;;3.05;1.77;;;20.30;90.60;;;;;;5079201;28;20028;-87
2022/07/13 06:20:16;;;;;;;15.68;7.57;;;20.40;90.50;;;;;;5079029;28;20073;-87
2022/07/13 06:22:42;;;;;;;9.55;3.83;;;20.70;90.30;;;;;;5079189;28;20017;-87
2022/07/13 06:25:08;;;;;;;11.82;3.17;;;20.80;90.10;;;;;;5061617;28;20017;-87
2022/07/13 06:27:35;;;;;;;3.63;1.92;;;20.90;89.60;;;;;;5061563;28;20061;-87
2022/07/13 06:30:00;;;;;;;5.30;1.80;;;21.20;89.30;;;;;;5077788;28;20033;-88
2022/07/13 06:32:34;;;;;;;5.45;1.83;;;21.40;88.50;;;;;;5077976;28;20028;-85
2022/07/13 06:35:00;;;;;;;4.33;1.60;;;21.60;87.90;;;;;;5068917;28;20032;-87
2022/07/13 06:37:26;;;;;;;7.78;1.90;;;21.80;87.50;;;;;;5078691;28;20028;-88
2022/07/13 06:39:52;;;;;;;7.35;2.47;;;22.00;87.10;;;;;;5078128;28;20048;-86
2022/07/13 06:42:18;;;;;;;11.77;2.30;;;22.20;86.60;;;;;;5155394;22;20067;-87
2022/07/13 06:44:47;;;;;;;5.57;1.35;;;22.30;86.20;;;;;;5065068;28;20017;-86
2022/07/13 06:47:13;;;;;;;6.63;1.50;;;22.60;85.10;;;;;;5075746;28;20101;-88
2022/07/13 06:49:49;;;;;;;8.65;1.75;;;22.60;85.20;;;;;;5215777;22;20029;-88
2022/07/13 06:52:15;;;;;;;12.13;1.80;;;22.70;85.00;;;;;;5057576;28;20022;-87
2022/07/13 06:54:41;;;;;;;14.43;1.90;;;22.70;85.00;;;;;;5056700;28;20018;-87
2022/07/13 06:57:14;;;;;;;3.47;1.48;;;22.80;85.00;;;;;;5058270;28;20039;-88
2022/07/13 06:59:40;;;;;;;9.57;1.80;;;23.00;84.20;;;;;;5076189;28;20032;-89
2022/07/13 07:02:06;;;;;;;7.00;1.70;;;23.10;83.60;;;;;;5079283;28;20018;-86
2022/07/13 07:04:32;;;;;;;2.55;1.50;;;23.10;83.20;;;;;;5064495;28;20032;-87
2022/07/13 07:07:01;;;;;;;8.32;1.52;;;23.10;83.40;;;;;;5066287;28;20041;-87
2022/07/13 07:09:27;;;;;;;11.82;1.70;;;23.20;83.50;;;;;;5065424;28;20039;-89
2022/07/13 07:11:53;;;;;;;8.00;2.00;;;23.20;83.40;;;;;;5078689;28;20018;-90
2022/07/13 07:14:19;;;;;;;7.07;1.63;;;23.30;83.10;;;;;;5065563;28;20096;-88
2022/07/13 07:16:45;;;;;;;5.10;1.50;;;23.40;83.00;;;;;;5076920;28;20039;-86
2022/07/13 07:19:10;;;;;;;5.20;1.63;;;23.50;82.90;;;;;;5072709;28;20040;-88
2022/07/13 07:21:37;;;;;;;4.82;1.65;;;23.40;82.80;;;;;;5062465;28;20048;-87
2022/07/13 07:24:03;;;;;;;5.82;1.73;;;23.40;82.60;;;;;;5063246;28;20042;-88
2022/07/13 07:26:32;;;;;;;8.63;2.88;;;23.40;82.40;;;;;;5059124;28;20040;-87
2022/07/13 07:29:01;;;;;;;3.30;1.50;;;23.40;82.20;;;;;;5055936;28;20033;-88
2022/07/13 07:31:28;;;;;;;4.35;2.40;;;23.40;82.60;;;;;;5050375;28;20029;-89
2022/07/13 07:33:54;;;;;;;10.65;4.32;;;23.40;82.80;;;;;;5056576;28;20060;-90
2022/07/13 07:36:21;;;;;;;7.38;2.20;;;23.50;82.50;;;;;;5077227;28;20017;-87
2022/07/13 07:38:47;;;;;;;9.73;1.80;;;23.50;82.90;;;;;;5077498;28;20017;-87
2022/07/13 07:41:13;;;;;;;8.70;1.95;;;23.60;83.10;;;;;;5078153;28;20012;-88
2022/07/13 07:43:39;;;;;;;5.47;2.03;;;23.70;83.00;;;;;;5076396;28;20036;-88
2022/07/13 07:46:05;;;;;;;8.95;1.80;;;23.80;83.10;;;;;;5077187;28;20045;-88
2022/07/13 07:48:31;;;;;;;5.35;1.63;;;23.90;82.60;;;;;;5077111;28;20036;-88
2022/07/13 07:50:57;;;;;;;6.93;1.58;;;23.90;82.00;;;;;;5077120;28;20041;-88
2022/07/13 07:53:23;;;;;;;3.53;1.40;;;23.90;81.60;;;;;;5068900;28;20013;-89
2022/07/13 07:55:49;;;;;;;3.35;1.42;;;23.90;82.20;;;;;;5067456;28;20032;-88
2022/07/13 07:58:17;;;;;;;8.73;1.45;;;24.00;81.90;;;;;;5089640;28;20017;-87
2022/07/13 08:00:43;;;;;;;1.83;1.40;;;24.10;82.00;;;;;;5077209;28;20025;-84
2022/07/13 08:03:10;;;;;;;5.47;1.85;;;24.10;81.40;;;;;;5076819;28;20017;-83
2022/07/13 08:05:36;;;;;;;3.75;1.70;;;24.10;81.80;;;;;;5076599;28;20112;-82
2022/07/13 08:08:04;;;;;;;2.55;1.42;;;24.20;81.80;;;;;;5076575;28;20033;-86
2022/07/13 08:10:30;;;;;;;6.65;1.70;;;24.30;81.80;;;;;;5092171;28;20017;-87
2022/07/13 08:12:59;;;;;;;4.10;1.20;;;24.30;81.40;;;;;;5084272;28;20036;-88
2022/07/13 08:16:02;;;;;;;2.38;1.40;;;24.40;80.70;;;;;;5062463;28;20017;-94
2022/07/13 08:30:20;;;;;;;14.60;4.10;;;24.90;77.50;;;;;;5400606;22;20057;-81
2022/07/13 08:32:47;;;;;;;8.55;3.50;;;25.00;77.10;;;;;;5058805;28;20038;-82
2022/07/13 08:40:43;;;;;;;11.25;1.60;;;25.00;78.30;;;;;;5060672;28;20059;-83
2022/07/13 08:43:09;;;;;;;1.88;1.23;;;25.10;78.50;;;;;;5059730;28;20029;-83
2022/07/13 08:45:35;;;;;;;5.03;1.77;;;25.20;79.40;;;;;;5058980;28;20034;-82
2022/07/13 08:48:06;;;;;;;1.85;1.38;;;25.20;79.70;;;;;;5059430;28;20056;-81
2022/07/13 08:50:32;;;;;;;4.75;1.50;;;25.20;78.20;;;;;;5025671;28;20077;-82
2022/07/13 08:52:59;;;;;;;1.58;1.20;;;25.30;76.80;;;;;;5059342;28;20093;-82
2022/07/13 08:55:26;;;;;;;5.00;1.58;;;25.20;76.40;;;;;;5049682;28;20025;-83
2022/07/13 08:57:52;;;;;;;4.10;1.50;;;25.20;76.90;;;;;;5038559;28;20006;-82
2022/07/13 09:00:21;;;;;;;8.18;1.27;;;25.40;77.20;;;;;;5049341;28;20030;-83
2022/07/13 09:02:48;;;;;;;3.45;1.67;;;25.50;76.70;;;;;;5040852;28;20013;-82
2022/07/13 09:05:18;;;;;;;2.70;1.40;;;25.50;75.30;;;;;;5057857;28;20041;-83
2022/07/13 09:08:01;;;;;;;5.53;1.33;;;25.40;75.60;;;;;;5029619;28;20032;-85
2022/07/13 09:10:27;;;;;;;4.57;1.30;;;25.40;75.60;;;;;;5028579;28;20041;-83
2022/07/13 09:12:52;;;;;;;1.63;1.30;;;25.50;76.00;;;;;;5045703;28;20077;-84
2022/07/13 09:15:18;;;;;;;6.60;1.30;;;25.70;76.00;;;;;;5044751;28;20097;-83
2022/07/13 09:17:44;;;;;;;2.65;1.27;;;25.80;74.20;;;;;;5042926;28;20048;-84
2022/07/13 09:20:10;;;;;;;6.65;1.50;;;25.80;74.10;;;;;;5024975;28;20033;-83
2022/07/13 09:22:57;;;;;;;3.15;1.40;;;25.90;73.90;;;;;;5043240;28;20101;-82
2022/07/13 09:25:37;;;;;;;1.83;1.00;;;26.00;74.40;;;;;;5031931;28;20041;-83
2022/07/13 09:28:08;;;;;;;1.45;1.00;;;26.00;74.40;;;;;;5050976;28;20280;-82
2022/07/13 09:30:37;;;;;;;3.20;1.10;;;26.00;74.20;;;;;;5057954;28;20065;-84
2022/07/13 09:33:03;;;;;;;1.90;1.33;;;26.00;74.50;;;;;;5057361;28;20005;-84
2022/07/13 09:35:42;;;;;;;4.47;1.27;;;26.00;74.30;;;;;;5027835;28;20017;-82
2022/07/13 09:38:09;;;;;;;2.50;1.25;;;26.10;74.00;;;;;;5042872;28;20029;-83
2022/07/13 09:40:35;;;;;;;4.22;1.08;;;26.10;73.90;;;;;;5009605;28;20048;-83
2022/07/13 09:48:30;;;;;;;5.78;1.50;;;26.50;73.90;;;;;;5041603;28;20025;-83
2022/07/13 09:50:56;;;;;;;3.85;1.60;;;26.90;73.20;;;;;;5024912;28;20025;-84
2022/07/13 09:53:30;;;;;;;6.72;1.60;;;27.20;73.00;;;;;;5042488;28;20032;-83
2022/07/13 09:55:57;;;;;;;5.55;1.50;;;27.60;72.50;;;;;;5025531;28;20035;-84
2022/07/13 09:58:30;;;;;;;3.53;1.42;;;28.20;72.10;;;;;;5043389;28;20413;-84
2022/07/13 10:00:58;;;;;;;3.63;1.27;;;28.80;70.50;;;;;;5044267;28;20072;-84
2022/07/13 10:03:25;;;;;;;3.63;1.35;;;29.30;68.90;;;;;;5046096;28;20025;-83
2022/07/13 10:05:55;;;;;;;3.63;1.27;;;30.20;68.30;;;;;;5043045;28;20493;-84
2022/07/13 10:08:22;;;;;;;4.60;1.40;;;30.80;66.70;;;;;;5028618;28;20060;-85
2022/07/13 10:10:49;;;;;;;1.77;1.00;;;31.40;65.20;;;;;;5031021;28;20021;-83
2022/07/13 10:13:15;;;;;;;3.22;1.75;;;31.70;64.60;;;;;;5050327;28;20045;-83
2022/07/13 10:15:41;;;;;;;6.35;1.10;;;32.70;63.70;;;;;;5056602;28;20029;-84
2022/07/13 10:18:26;;;;;;;3.88;1.40;;;33.20;62.30;;;;;;5058106;28;20536;-84
2022/07/13 10:21:04;;;;;;;5.15;1.55;;;33.70;61.90;;;;;;5053971;28;20029;-83
2022/07/13 10:23:42;;;;;;;4.90;1.30;;;34.50;61.20;;;;;;5037951;28;20052;-84
2022/07/13 10:26:24;;;;;;;4.32;1.23;;;34.70;59.00;;;;;;5030271;28;20045;-87
2022/07/13 10:29:09;;;;;;;5.35;1.40;;;34.30;60.20;;;;;;5027100;28;20021;-85
2022/07/13 10:31:36;;;;;;;5.65;1.15;;;35.60;58.80;;;;;;5025103;28;20090;-84
2022/07/13 10:34:03;;;;;;;3.58;1.20;;;36.30;57.60;;;;;;5042584;28;20028;-83
2022/07/13 10:36:51;;;;;;;4.60;1.42;;;37.00;56.10;;;;;;5024175;28;20038;-85
2022/07/13 10:39:22;;;;;;;5.63;1.58;;;38.00;55.40;;;;;;5032412;28;20034;-85
2022/07/13 10:42:02;;;;;;;4.50;1.55;;;38.60;54.70;;;;;;5043925;28;20032;-84
2022/07/13 10:44:42;;;;;;;3.42;1.15;;;39.00;54.10;;;;;;5042258;28;20081;-85
2022/07/13 10:47:11;;;;;;;5.28;1.00;;;38.90;53.50;;;;;;5043235;28;20034;-84
2022/07/13 10:49:51;;;;;;;3.45;1.63;;;39.20;52.90;;;;;;5048323;28;20028;-87
2022/07/13 10:52:25;;;;;;;6.30;1.27;;;39.50;52.60;;;;;;5044790;28;20030;-85
2022/07/13 10:55:03;;;;;;;5.60;1.15;;;39.10;52.30;;;;;;5025265;28;20481;-84
2022/07/13 10:57:33;;;;;;;3.05;1.00;;;39.40;51.70;;;;;;5050295;28;20089;-84
2022/07/13 11:00:13;;;;;;;2.85;1.10;;;39.90;51.60;;;;;;5055007;28;20069;-83
2022/07/13 11:02:50;;;;;;;6.22;4.80;;;39.60;50.00;;;;;;5055199;28;20020;-84
2022/07/13 11:05:21;;;;;;;3.95;2.55;;;39.30;50.90;;;;;;5054411;28;20033;-82
2022/07/13 11:07:49;;;;;;;10.52;1.35;;;39.00;49.30;;;;;;5054905;28;20398;-84
2022/07/13 11:10:23;;;;;;;3.53;1.10;;;38.60;50.10;;;;;;5037295;28;20033;-85
2022/07/13 11:13:20;;;;;;;4.20;1.15;;;39.90;49.20;;;;;;5034442;28;20055;-84
2022/07/13 11:15:52;;;;;;;3.47;1.20;;;40.90;48.50;;;;;;5041446;28;20029;-84
2022/07/13 11:18:35;;;;;;;2.35;1.00;;;41.80;47.30;;;;;;5041936;28;20030;-85
2022/07/13 11:21:08;;;;;;;2.92;0.90;;;40.50;47.90;;;;;;5038263;28;20021;-84
2022/07/13 11:26:46;;;;;;;0.97;0.80;;;41.60;45.80;;;;;;5036959;28;20504;-84
2022/07/13 11:29:46;;;;;;;8.25;0.90;;;42.70;43.40;;;;;;5043635;28;20029;-85
2022/07/13 11:32:12;;;;;;;6.55;0.70;;;42.30;43.40;;;;;;5027956;28;20506;-85
2022/07/13 11:34:38;;;;;;;3.28;0.93;;;42.60;43.50;;;;;;5028600;28;20026;-83
2022/07/13 11:37:04;;;;;;;3.95;0.90;;;42.40;43.50;;;;;;5047016;28;20036;-84
2022/07/13 11:39:35;;;;;;;2.22;0.90;;;42.40;44.20;;;;;;5028658;28;20040;-85
2022/07/13 11:42:02;;;;;;;3.53;0.70;;;41.90;44.50;;;;;;5027323;28;20095;-84
2022/07/13 11:44:30;;;;;;;2.92;1.25;;;42.10;43.60;;;;;;5036227;28;20018;-83
2022/07/13 11:46:57;;;;;;;6.13;0.95;;;42.70;44.20;;;;;;5045426;28;20029;-81
2022/07/13 11:49:24;;;;;;;2.67;0.75;;;42.80;41.50;;;;;;5032343;28;20030;-84
2022/07/13 11:51:51;;;;;;;7.63;1.08;;;40.60;41.80;;;;;;5030237;28;20055;-85
2022/07/13 11:54:19;;;;;;;3.72;0.77;;;40.20;42.50;;;;;;5046579;28;20496;-84
2022/07/13 11:56:56;;;;;;;1.38;0.80;;;41.30;42.10;;;;;;5051733;28;20029;-82
2022/07/13 11:59:39;;;;;;;1.65;0.80;;;42.30;41.10;;;;;;5054539;28;20021;-83
2022/07/13 12:02:09;;;;;;;5.35;1.13;;;43.00;41.70;;;;;;5057478;28;20036;-83
2022/07/13 12:04:40;;;;;;;3.85;1.00;;;42.20;41.80;;;;;;5048908;28;20033;-83
2022/07/13 12:07:24;;;;;;;6.38;1.00;;;41.40;42.40;;;;;;5034405;28;20033;-83
2022/07/13 12:10:03;;;;;;;9.00;2.42;;;42.20;42.30;;;;;;5045542;28;20022;-84
2022/07/13 12:12:35;;;;;;;1.08;0.60;;;43.20;40.80;;;;;;5028686;28;20040;-84
2022/07/13 12:15:03;;;;;;;5.87;0.83;;;43.00;40.50;;;;;;5044047;28;20492;-85
2022/07/13 12:17:40;;;;;;;1.48;0.82;;;42.20;41.30;;;;;;5018340;28;20030;-84
2022/07/13 12:20:17;;;;;;;5.40;0.85;;;41.50;41.40;;;;;;5029418;28;20038;-83
2022/07/13 12:22:54;;;;;;;2.38;0.82;;;41.40;41.60;;;;;;5028684;28;20056;-84
2022/07/13 12:25:33;;;;;;;4.80;0.70;;;42.10;40.50;;;;;;5028857;28;20113;-83
2022/07/13 12:28:00;;;;;;;2.08;0.80;;;42.80;40.40;;;;;;5011078;28;20033;-86
2022/07/13 12:30:33;;;;;;;3.95;1.00;;;43.00;40.00;;;;;;5010178;28;20030;-83
2022/07/13 12:33:09;;;;;;;2.15;0.82;;;43.10;40.00;;;;;;5026103;28;20109;-83
2022/07/13 12:35:40;;;;;;;3.75;1.00;;;42.20;40.60;;;;;;5025203;28;20045;-84
2022/07/13 12:38:11;;;;;;;6.20;0.80;;;41.50;41.10;;;;;;5032424;28;20390;-84
2022/07/13 12:40:51;;;;;;;2.78;1.00;;;41.10;41.90;;;;;;5036979;28;20041;-83
2022/07/13 12:43:20;;;;;;;1.23;0.75;;;42.50;41.20;;;;;;5037861;28;20018;-84
2022/07/13 12:45:48;;;;;;;1.05;0.60;;;44.00;40.50;;;;;;5029291;28;20057;-83
2022/07/13 12:48:19;;;;;;;0.95;0.70;;;44.50;39.60;;;;;;5025906;28;20117;-83
2022/07/13 12:51:02;;;;;;;1.23;0.82;;;44.20;39.20;;;;;;5025619;28;20085;-84
2022/07/13 12:53:48;;;;;;;6.75;0.80;;;44.70;39.20;;;;;;5024594;28;20026;-84
2022/07/13 12:56:15;;;;;;;2.33;0.65;;;43.70;38.90;;;;;;5011815;28;20068;-84
2022/07/13 12:58:47;;;;;;;1.60;0.80;;;43.00;39.30;;;;;;5034919;28;20021;-83
2022/07/13 13:01:36;;;;;;;0.57;0.50;;;43.20;38.50;;;;;;5020849;28;20042;-84
2022/07/13 13:04:04;;;;;;;2.92;0.60;;;41.40;38.80;;;;;;5031324;28;20036;-85
2022/07/13 13:06:31;;;;;;;1.58;0.77;;;40.80;39.00;;;;;;5039125;28;20022;-84
2022/07/13 13:09:07;;;;;;;1.05;0.52;;;40.80;39.30;;;;;;5022676;28;20113;-84
2022/07/13 13:11:34;;;;;;;1.10;0.80;;;42.00;38.90;;;;;;5021511;28;20037;-84
2022/07/13 13:14:00;;;;;;;2.47;1.00;;;43.20;38.20;;;;;;5022827;28;20018;-84
2022/07/13 13:16:26;;;;;;;1.70;0.82;;;43.90;37.50;;;;;;5022981;28;20060;-83
2022/07/13 13:18:52;;;;;;;3.97;0.70;;;44.40;37.10;;;;;;5022356;28;20037;-84